createdAt,value
2019-02-26T00:01:14.404Z,22.70
2019-02-26T00:03:41.873Z,23.45
2019-02-26T00:06:10.983Z,24.43
2019-02-26T00:08:40.084Z,21.75
2019-02-26T00:11:10.801Z,21.48
2019-02-26T00:13:40.040Z,21.62
2019-02-26T00:16:10.518Z,22.57
2019-02-26T00:18:39.913Z,22.60
2019-02-26T00:21:08.958Z,20.82
2019-02-26T00:23:38.035Z,20.25
2019-02-26T00:26:10.485Z,22.85
2019-02-26T00:28:39.106Z,24.25
2019-02-26T00:31:08.789Z,24.47
2019-02-26T00:33:37.965Z,23.52
2019-02-26T00:36:08.915Z,22.42
2019-02-26T00:38:39.865Z,22.27
2019-02-26T00:41:08.649Z,24.95
2019-02-26T00:43:37.690Z,23.40
2019-02-26T00:46:08.603Z,23.05
2019-02-26T00:48:40.259Z,24.20
2019-02-26T00:51:08.532Z,24.23
2019-02-26T00:53:37.652Z,23.18
2019-02-26T00:56:08.029Z,23.18
2019-02-26T00:58:39.289Z,24.90
2019-02-26T01:01:10.402Z,22.43
2019-02-26T01:03:40.710Z,23.23
2019-02-26T01:06:10.078Z,22.02
2019-02-26T01:08:40.252Z,24.20
2019-02-26T01:11:10.291Z,21.93
2019-02-26T01:13:39.362Z,21.13
2019-02-26T01:16:08.411Z,22.80
2019-02-26T01:18:37.861Z,21.07
2019-02-26T01:21:06.929Z,21.13
2019-02-26T01:23:35.975Z,23.27
2019-02-26T01:26:05.054Z,21.65
2019-02-26T01:28:34.140Z,20.95
2019-02-26T01:31:05.033Z,20.27
2019-02-26T01:33:34.265Z,25.00
2019-02-26T01:36:03.583Z,23.52
2019-02-26T01:38:37.389Z,22.60
2019-02-26T01:41:05.271Z,22.20
2019-02-26T01:43:34.401Z,23.83
2019-02-26T01:46:03.555Z,21.42
2019-02-26T01:48:34.327Z,22.80
2019-02-26T01:51:03.486Z,23.87
2019-02-26T01:53:32.678Z,22.62
2019-02-26T01:56:04.542Z,23.75
2019-02-26T01:58:33.699Z,22.13
2019-02-26T02:01:03.166Z,23.12
2019-02-26T02:03:32.594Z,21.97
2019-02-26T02:06:01.817Z,22.73
2019-02-26T02:08:30.894Z,22.52
2019-02-26T02:11:01.967Z,22.40
2019-02-26T02:13:32.943Z,22.37
2019-02-26T02:16:02.130Z,22.85
2019-02-26T02:18:32.311Z,23.07
2019-02-26T02:21:01.382Z,23.30
2019-02-26T02:23:30.562Z,21.93
2019-02-26T02:26:02.126Z,23.45
2019-02-26T02:28:31.072Z,22.48
2019-02-26T02:31:01.262Z,22.50
2019-02-26T02:33:33.106Z,22.60
2019-02-26T02:36:01.275Z,23.15
2019-02-26T02:38:30.314Z,24.15
2019-02-26T02:40:59.378Z,22.65
2019-02-26T02:43:28.554Z,23.27
2019-02-26T02:45:59.013Z,26.10
2019-02-26T02:48:28.496Z,23.63
2019-02-26T02:50:59.517Z,23.98
2019-02-26T02:53:30.218Z,24.05
2019-02-26T02:55:59.138Z,26.42
2019-02-26T02:58:28.243Z,26.15
2019-02-26T03:01:00.195Z,27.50
2019-02-26T03:03:28.100Z,25.05
2019-02-26T03:05:58.368Z,25.88
2019-02-26T03:08:27.950Z,23.47
2019-02-26T03:10:56.998Z,24.82
2019-02-26T03:13:27.948Z,25.70
2019-02-26T03:15:59.293Z,25.77
2019-02-26T03:18:27.667Z,24.72
2019-02-26T03:20:59.311Z,27.05
2019-02-26T03:23:27.521Z,29.65
2019-02-26T03:25:56.590Z,27.27
2019-02-26T03:28:25.642Z,25.40
2019-02-26T03:30:55.003Z,26.85
2019-02-26T03:33:24.088Z,26.60
2019-02-26T03:35:53.149Z,26.17
2019-02-26T03:38:23.397Z,26.15
2019-02-26T03:40:58.041Z,29.20
2019-02-26T03:43:25.561Z,30.72
2019-02-26T03:45:54.653Z,25.85
2019-02-26T03:48:24.091Z,31.17
2019-02-26T03:50:53.139Z,30.60
2019-02-26T03:53:25.828Z,27.80
2019-02-26T03:55:59.558Z,28.95
2019-02-26T03:58:26.889Z,31.57
2019-02-26T04:00:55.955Z,27.87
2019-02-26T04:03:25.107Z,28.95
2019-02-26T04:05:57.173Z,29.60
2019-02-26T04:08:27.003Z,28.90
2019-02-26T04:10:58.349Z,29.82
2019-02-26T04:13:26.809Z,27.62
2019-02-26T04:15:57.104Z,26.97
2019-02-26T04:18:26.682Z,28.40
2019-02-26T04:20:59.828Z,30.08
2019-02-26T04:23:26.870Z,30.92
2019-02-26T04:26:08.887Z,30.43
2019-02-26T04:29:05.176Z,28.95
2019-02-26T04:31:47.115Z,28.90
2019-02-26T04:34:37.587Z,29.37
2019-02-26T04:38:03.349Z,32.93
2019-02-26T04:41:15.930Z,29.52
2019-02-26T04:44:10.710Z,30.27
2019-02-26T04:47:06.457Z,31.50
2019-02-26T04:49:38.348Z,32.03
2019-02-26T04:52:10.266Z,32.23
2019-02-26T04:54:39.577Z,32.63
2019-02-26T04:57:08.031Z,31.82
2019-02-26T04:59:38.714Z,40.45
2019-02-26T05:02:07.851Z,32.70
2019-02-26T05:04:39.363Z,30.72
2019-02-26T05:07:10.560Z,33.42
2019-02-26T05:09:38.663Z,31.42
2019-02-26T05:12:10.926Z,28.77
2019-02-26T05:14:40.002Z,31.40
2019-02-26T05:17:09.099Z,32.48
2019-02-26T05:19:39.568Z,31.12
2019-02-26T05:22:08.929Z,31.95
2019-02-26T05:24:41.394Z,31.73
2019-02-26T05:27:15.618Z,34.00
2019-02-26T05:29:46.584Z,34.03
2019-02-26T05:32:16.585Z,34.23
2019-02-26T05:34:48.121Z,30.13
2019-02-26T05:37:16.467Z,32.53
2019-02-26T05:39:46.880Z,30.48
2019-02-26T05:42:16.339Z,32.50
2019-02-26T05:44:45.404Z,32.40
2019-02-26T05:47:16.696Z,31.93
2019-02-26T05:49:45.787Z,34.35
2019-02-26T05:52:15.146Z,33.18
2019-02-26T05:54:44.236Z,32.03
2019-02-26T05:57:25.877Z,33.88
2019-02-26T05:59:44.166Z,33.50
2019-02-26T06:02:15.608Z,33.05
2019-02-26T06:04:46.554Z,33.73
2019-02-26T06:07:19.183Z,31.82
2019-02-26T06:09:48.005Z,33.28
2019-02-26T06:12:16.482Z,34.03
2019-02-26T06:14:45.562Z,32.50
2019-02-26T06:17:17.211Z,32.53
2019-02-26T06:19:47.524Z,37.00
2019-02-26T06:22:20.102Z,34.03
2019-02-26T06:24:47.393Z,33.48
2019-02-26T06:27:18.962Z,34.53
2019-02-26T06:29:47.287Z,34.63
2019-02-26T06:32:16.534Z,34.80
2019-02-26T06:34:45.587Z,35.80
2019-02-26T06:37:17.092Z,37.13
2019-02-26T06:39:50.505Z,35.65
2019-02-26T06:42:17.081Z,34.60
2019-02-26T06:44:47.204Z,37.48
2019-02-26T06:47:16.946Z,35.73
2019-02-26T06:49:47.959Z,37.48
2019-02-26T06:52:18.018Z,35.33
2019-02-26T06:54:50.782Z,36.80
2019-02-26T06:57:18.399Z,35.03
2019-02-26T06:59:47.520Z,39.10
2019-02-26T07:02:16.701Z,36.95
2019-02-26T07:04:45.798Z,38.70
2019-02-26T07:07:14.928Z,37.08
2019-02-26T07:09:44.075Z,38.47
2019-02-26T07:12:14.625Z,41.75
2019-02-26T07:14:45.946Z,44.27
2019-02-26T07:17:14.864Z,37.23
2019-02-26T07:19:43.922Z,38.35
2019-02-26T07:22:13.508Z,36.38
2019-02-26T07:24:46.248Z,40.90
2019-02-26T07:27:14.659Z,39.98
2019-02-26T07:29:45.590Z,37.23
2019-02-26T07:32:15.479Z,39.53
2019-02-26T07:34:47.998Z,38.40
2019-02-26T07:37:16.238Z,45.10
2019-02-26T07:39:47.213Z,44.18
2019-02-26T07:42:18.361Z,41.80
2019-02-26T07:44:46.914Z,41.53
2019-02-26T07:47:16.038Z,41.25
2019-02-26T07:49:45.125Z,46.35
2019-02-26T07:52:14.227Z,45.33
2019-02-26T07:54:44.797Z,43.30
2019-02-26T07:57:15.735Z,42.60
2019-02-26T07:59:47.095Z,44.08
2019-02-26T08:02:15.901Z,48.50
2019-02-26T08:04:45.046Z,42.73
2019-02-26T08:07:14.276Z,41.63
2019-02-26T08:09:43.402Z,45.45
2019-02-26T08:12:13.715Z,43.48
2019-02-26T08:14:45.308Z,42.93
2019-02-26T08:17:14.157Z,44.67
2019-02-26T08:19:46.324Z,40.83
2019-02-26T08:22:14.124Z,51.73
2019-02-26T08:24:43.221Z,46.05
2019-02-26T08:27:13.558Z,41.75
2019-02-26T08:29:43.014Z,43.20
2019-02-26T08:32:13.756Z,44.03
2019-02-26T08:34:42.002Z,45.50
2019-02-26T08:37:10.605Z,46.90
2019-02-26T08:39:39.222Z,44.30
2019-02-26T08:42:08.566Z,44.38
2019-02-26T08:44:37.257Z,51.83
2019-02-26T08:47:08.789Z,43.48
2019-02-26T08:49:38.318Z,46.00
2019-02-26T08:52:06.508Z,47.03
2019-02-26T08:54:35.825Z,44.03
2019-02-26T08:57:04.550Z,52.55
2019-02-26T08:59:33.262Z,45.67
2019-02-26T09:02:01.814Z,45.48
2019-02-26T09:04:30.382Z,46.95
2019-02-26T09:07:00.275Z,49.73
2019-02-26T09:09:30.189Z,48.90
2019-02-26T09:12:01.197Z,49.15
2019-02-26T09:14:32.023Z,49.40
2019-02-26T09:17:01.935Z,51.40
2019-02-26T09:19:32.878Z,51.63
2019-02-26T09:22:00.648Z,52.35
2019-02-26T09:24:29.574Z,50.15
2019-02-26T09:26:59.929Z,51.75
2019-02-26T09:29:28.827Z,51.45
2019-02-26T09:31:57.435Z,57.00
2019-02-26T09:34:26.675Z,58.95
2019-02-26T09:36:58.096Z,49.40
2019-02-26T09:39:27.509Z,48.75
2019-02-26T09:41:58.849Z,48.78
2019-02-26T09:44:29.256Z,45.73
2019-02-26T09:46:59.674Z,47.43
2019-02-26T09:49:28.489Z,49.75
2019-02-26T09:51:59.056Z,53.50
2019-02-26T09:54:28.617Z,61.85
2019-02-26T09:56:57.234Z,52.10
2019-02-26T09:59:26.459Z,61.60
2019-02-26T10:01:58.938Z,50.20
2019-02-26T10:04:28.906Z,50.55
2019-02-26T10:06:57.734Z,46.98
2019-02-26T10:09:26.279Z,52.70
2019-02-26T10:11:54.830Z,46.65
2019-02-26T10:14:23.434Z,48.38
2019-02-26T10:16:54.303Z,58.60
2019-02-26T10:19:22.276Z,50.28
2019-02-26T10:21:50.832Z,52.23
2019-02-26T10:24:23.036Z,66.37
2019-02-26T10:26:49.708Z,53.70
2019-02-26T10:29:18.286Z,51.40
2019-02-26T10:31:46.866Z,45.63
2019-02-26T10:34:16.300Z,47.17
2019-02-26T10:37:06.482Z,45.75
2019-02-26T10:39:35.090Z,52.27
2019-02-26T10:42:03.811Z,50.55
2019-02-26T10:44:32.390Z,49.85
2019-02-26T10:47:03.154Z,44.48
2019-02-26T10:49:31.238Z,46.60
2019-02-26T10:51:59.796Z,45.65
2019-02-26T10:54:29.404Z,53.05
2019-02-26T10:57:00.397Z,47.15
2019-02-26T10:59:28.926Z,46.92
2019-02-26T11:01:58.426Z,45.12
2019-02-26T11:04:34.768Z,48.45
2019-02-26T11:06:59.395Z,53.40
2019-02-26T11:09:29.900Z,53.65
2019-02-26T11:12:00.827Z,48.23
2019-02-26T11:14:31.241Z,44.43
2019-02-26T11:17:01.580Z,49.55
2019-02-26T11:19:33.826Z,49.90
2019-02-26T11:22:04.201Z,48.07
2019-02-26T11:24:33.596Z,47.50
2019-02-26T11:27:03.665Z,48.20
2019-02-26T11:29:34.095Z,48.45
2019-02-26T11:32:04.592Z,48.00
2019-02-26T11:34:36.251Z,50.78
2019-02-26T11:37:08.911Z,50.90
2019-02-26T11:39:36.172Z,55.33
2019-02-26T11:42:05.345Z,47.27
2019-02-26T11:44:35.225Z,48.92
2019-02-26T11:47:04.612Z,48.78
2019-02-26T11:49:34.902Z,48.00
2019-02-26T11:52:04.739Z,51.58
2019-02-26T11:54:35.068Z,52.62
2019-02-26T11:57:09.786Z,50.45
2019-02-26T11:59:38.072Z,47.30
2019-02-26T12:02:07.388Z,49.65
2019-02-26T12:04:36.512Z,52.90
2019-02-26T12:07:07.472Z,49.45
2019-02-26T12:09:38.535Z,52.20
2019-02-26T12:12:09.233Z,46.25
2019-02-26T12:14:42.639Z,46.80
2019-02-26T12:17:09.327Z,49.38
2019-02-26T12:19:38.414Z,51.45
2019-02-26T12:22:07.590Z,51.77
2019-02-26T12:24:36.735Z,48.80
2019-02-26T12:27:07.326Z,51.05
2019-02-26T12:29:36.651Z,50.08
2019-02-26T12:32:05.750Z,52.90
2019-02-26T12:34:35.923Z,53.92
2019-02-26T12:37:06.627Z,52.75
2019-02-26T12:39:36.492Z,48.10
2019-02-26T12:42:07.403Z,50.48
2019-02-26T12:44:39.454Z,45.65
2019-02-26T12:47:07.449Z,53.52
2019-02-26T12:49:39.156Z,49.90
2019-02-26T12:52:08.871Z,46.73
2019-02-26T12:54:42.240Z,45.88
2019-02-26T12:57:08.734Z,53.68
2019-02-26T12:59:37.833Z,50.40
2019-02-26T13:02:09.997Z,46.60
2019-02-26T13:04:40.861Z,46.48
2019-02-26T13:07:09.475Z,45.95
2019-02-26T13:09:46.066Z,50.90
2019-02-26T13:12:11.470Z,46.80
2019-02-26T13:14:40.485Z,47.30
2019-02-26T13:17:09.627Z,45.33
2019-02-26T13:19:39.335Z,43.95
2019-02-26T13:22:12.496Z,48.68
2019-02-26T13:24:39.590Z,43.78
2019-02-26T13:27:08.670Z,49.08
2019-02-26T13:29:42.569Z,42.00
2019-02-26T13:32:13.676Z,49.13
2019-02-26T13:34:39.995Z,48.65
2019-02-26T13:37:09.182Z,50.12
2019-02-26T13:39:41.209Z,48.50
2019-02-26T13:42:13.160Z,52.78
2019-02-26T13:44:40.091Z,49.05
2019-02-26T13:47:09.653Z,48.05
2019-02-26T13:49:38.937Z,50.20
2019-02-26T13:52:08.115Z,59.03
2019-02-26T13:54:37.196Z,56.33
2019-02-26T13:57:06.290Z,48.30
2019-02-26T13:59:35.458Z,48.52
2019-02-26T14:02:04.619Z,52.25
2019-02-26T14:04:33.911Z,46.75
2019-02-26T14:07:03.019Z,50.87
2019-02-26T14:09:32.114Z,48.95
2019-02-26T14:12:01.226Z,47.98
2019-02-26T14:14:30.622Z,51.10
2019-02-26T14:16:59.714Z,54.53
2019-02-26T14:19:28.865Z,51.13
2019-02-26T14:21:57.961Z,49.93
2019-02-26T14:24:27.150Z,53.45
2019-02-26T14:26:56.226Z,63.30
2019-02-26T14:29:25.287Z,51.60
2019-02-26T14:31:54.383Z,54.77
2019-02-26T14:34:23.455Z,56.70
2019-02-26T14:36:52.530Z,54.33
2019-02-26T14:39:22.142Z,50.52
2019-02-26T14:41:51.203Z,52.73
2019-02-26T14:44:20.292Z,60.98
2019-02-26T14:46:49.370Z,58.95
2019-02-26T14:49:18.583Z,56.95
2019-02-26T14:51:47.700Z,55.60
2019-02-26T14:54:16.790Z,56.20
2019-02-26T14:56:45.954Z,57.93
2019-02-26T14:59:15.091Z,56.70
2019-02-26T15:01:44.412Z,58.45
2019-02-26T15:04:13.491Z,54.13
2019-02-26T15:06:42.611Z,58.30
2019-02-26T15:09:11.718Z,56.02
2019-02-26T15:11:40.883Z,52.27
2019-02-26T15:14:10.001Z,57.35
2019-02-26T15:16:39.236Z,56.92
2019-02-26T15:19:08.379Z,59.67
2019-02-26T15:21:37.633Z,57.00
2019-02-26T15:24:06.834Z,57.07
2019-02-26T15:26:35.893Z,54.45
2019-02-26T15:29:05.084Z,59.30
2019-02-26T15:31:34.186Z,55.65
2019-02-26T15:34:03.314Z,55.23
2019-02-26T15:36:32.763Z,56.80
2019-02-26T15:39:01.877Z,61.55
2019-02-26T15:41:34.142Z,59.20
2019-02-26T15:44:03.487Z,56.88
2019-02-26T15:46:32.595Z,59.55
2019-02-26T15:49:01.802Z,59.95
2019-02-26T15:51:30.923Z,57.53
2019-02-26T15:54:00.033Z,60.95
2019-02-26T15:56:29.833Z,68.07
2019-02-26T15:58:59.394Z,56.92
2019-02-26T16:01:28.538Z,60.20
2019-02-26T16:03:57.933Z,57.83
2019-02-26T16:06:27.027Z,57.40
2019-02-26T16:08:56.126Z,62.20
2019-02-26T16:11:25.190Z,60.08
2019-02-26T16:13:54.284Z,57.83
2019-02-26T16:16:23.433Z,63.40
2019-02-26T16:18:52.499Z,57.67
2019-02-26T16:21:21.608Z,64.00
2019-02-26T16:23:51.082Z,61.77
2019-02-26T16:26:20.220Z,58.48
2019-02-26T16:28:49.283Z,59.93
2019-02-26T16:31:18.395Z,67.78
2019-02-26T16:33:47.589Z,60.20
2019-02-26T16:36:17.041Z,69.60
2019-02-26T16:38:50.602Z,66.53
2019-02-26T16:41:18.832Z,67.00
2019-02-26T16:43:51.645Z,67.05
2019-02-26T16:46:18.990Z,66.90
2019-02-26T16:48:48.077Z,67.90
2019-02-26T16:51:21.022Z,67.80
2019-02-26T16:53:48.029Z,63.60
2019-02-26T16:56:17.219Z,70.42
2019-02-26T16:58:46.296Z,64.47
2019-02-26T17:01:15.401Z,65.28
2019-02-26T17:03:44.586Z,63.30
2019-02-26T17:06:13.818Z,67.08
2019-02-26T17:08:44.709Z,65.42
2019-02-26T17:11:14.006Z,71.12
2019-02-26T17:13:44.122Z,68.45
2019-02-26T17:16:18.118Z,65.40
2019-02-26T17:18:47.215Z,67.35
2019-02-26T17:21:16.298Z,66.15
2019-02-26T17:23:47.118Z,69.10
2019-02-26T17:26:16.582Z,69.42
2019-02-26T17:31:20.533Z,63.87
2019-02-26T17:33:49.577Z,65.97
2019-02-26T17:36:18.782Z,68.33
2019-02-26T17:38:51.557Z,60.53
2019-02-26T17:41:18.717Z,62.05
2019-02-26T17:43:47.782Z,66.07
2019-02-26T17:46:16.869Z,62.05
2019-02-26T17:48:45.956Z,64.32
2019-02-26T17:51:18.789Z,65.45
2019-02-26T17:53:45.943Z,63.87
2019-02-26T17:56:14.998Z,62.70
2019-02-26T17:58:44.549Z,60.52
2019-02-26T18:01:13.785Z,82.07
2019-02-26T18:03:45.338Z,71.20
2019-02-26T18:06:13.751Z,62.50
2019-02-26T18:08:43.143Z,74.55
2019-02-26T18:11:12.209Z,66.20
2019-02-26T18:13:41.290Z,68.78
2019-02-26T18:16:10.358Z,67.55
2019-02-26T18:18:39.437Z,65.83
2019-02-26T18:21:08.582Z,67.47
2019-02-26T18:23:38.281Z,62.43
2019-02-26T18:26:07.555Z,66.70
2019-02-26T18:28:36.862Z,65.83
2019-02-26T18:31:06.131Z,63.23
2019-02-26T18:33:36.237Z,66.30
2019-02-26T18:36:05.442Z,69.90
2019-02-26T18:38:34.519Z,62.65
2019-02-26T18:41:03.665Z,70.03
2019-02-26T18:43:32.747Z,70.27
2019-02-26T18:46:01.833Z,69.58
2019-02-26T18:48:31.001Z,64.75
2019-02-26T18:51:02.345Z,70.40
2019-02-26T18:53:31.095Z,73.02
2019-02-26T18:56:01.797Z,69.73
2019-02-26T18:58:31.582Z,91.53
2019-02-26T19:01:00.796Z,68.83
2019-02-26T19:03:29.833Z,74.70
2019-02-26T19:05:58.928Z,76.82
2019-02-26T19:08:28.011Z,69.97
2019-02-26T19:10:57.707Z,67.47
2019-02-26T19:13:26.906Z,70.52
2019-02-26T19:15:55.990Z,74.35
2019-02-26T19:18:24.974Z,75.92
2019-02-26T19:20:54.053Z,76.95
2019-02-26T19:23:23.158Z,70.97
2019-02-26T19:25:52.242Z,78.90
2019-02-26T19:28:21.342Z,82.67
2019-02-26T19:30:50.414Z,74.32
2019-02-26T19:33:21.771Z,74.55
2019-02-26T19:35:50.456Z,73.37
2019-02-26T19:38:19.534Z,73.50
2019-02-26T19:40:48.717Z,73.47
2019-02-26T19:43:17.826Z,74.32
2019-02-26T19:45:46.917Z,73.12
2019-02-26T19:48:15.998Z,77.53
2019-02-26T19:50:47.930Z,74.50
2019-02-26T19:53:15.804Z,72.37
2019-02-26T19:55:48.781Z,78.65
2019-02-26T19:58:16.077Z,78.45
2019-02-26T20:00:45.163Z,82.45
2019-02-26T20:03:14.344Z,79.00
2019-02-26T20:05:45.947Z,76.65
2019-02-26T20:08:14.197Z,78.80
2019-02-26T20:10:45.585Z,78.57
2019-02-26T20:13:14.108Z,71.12
2019-02-26T20:15:43.300Z,77.95
2019-02-26T20:18:20.078Z,74.07
2019-02-26T20:20:45.713Z,70.73
2019-02-26T20:23:14.841Z,70.57
2019-02-26T20:25:43.983Z,76.22
2019-02-26T20:28:13.056Z,76.17
2019-02-26T20:30:42.229Z,76.80
2019-02-26T20:33:11.279Z,79.23
2019-02-26T20:35:40.274Z,74.03
2019-02-26T20:38:09.334Z,74.82
2019-02-26T20:40:38.346Z,72.40
2019-02-26T20:43:07.532Z,75.65
2019-02-26T20:45:36.610Z,79.05
2019-02-26T20:48:06.722Z,80.20
2019-02-26T20:50:35.813Z,76.45
2019-02-26T20:53:05.891Z,73.52
2019-02-26T20:55:35.624Z,75.97
2019-02-26T20:58:04.794Z,80.07
2019-02-26T21:00:34.126Z,74.82
2019-02-26T21:03:03.169Z,75.13
2019-02-26T21:05:32.652Z,74.90
2019-02-26T21:08:01.973Z,77.47
2019-02-26T21:10:31.107Z,71.02
2019-02-26T21:13:01.899Z,68.87
2019-02-26T21:15:31.326Z,72.37
2019-02-26T21:18:00.756Z,74.12
2019-02-26T21:20:29.950Z,71.92
2019-02-26T21:22:58.963Z,72.08
2019-02-26T21:25:28.002Z,72.87
2019-02-26T21:28:00.628Z,71.20
2019-02-26T21:30:28.015Z,72.22
2019-02-26T21:32:58.081Z,75.73
2019-02-26T21:35:27.886Z,69.10
2019-02-26T21:37:56.947Z,76.25
2019-02-26T21:40:26.006Z,73.92
2019-02-26T21:42:55.085Z,70.80
2019-02-26T21:45:24.570Z,73.67
2019-02-26T21:47:54.006Z,69.60
2019-02-26T21:50:23.374Z,67.53
2019-02-26T21:53:00.255Z,73.12
2019-02-26T21:55:24.053Z,68.33
2019-02-26T21:57:54.818Z,78.70
2019-02-26T22:00:24.937Z,67.05
2019-02-26T22:02:54.380Z,75.25
2019-02-26T22:05:23.719Z,74.75
2019-02-26T22:07:53.154Z,70.00
2019-02-26T22:10:22.511Z,66.87
2019-02-26T22:12:51.919Z,75.17
2019-02-26T22:15:21.358Z,66.80
2019-02-26T22:17:50.521Z,68.42
2019-02-26T22:20:35.470Z,69.70
2019-02-26T22:22:51.180Z,69.03
2019-02-26T22:25:20.736Z,71.10
2019-02-26T22:27:50.244Z,70.60
2019-02-26T22:30:22.070Z,79.55
2019-02-26T22:32:50.993Z,77.73
2019-02-26T22:35:20.430Z,67.67
2019-02-26T22:37:49.748Z,65.78
2019-02-26T22:40:19.520Z,67.97
2019-02-26T22:42:48.688Z,70.80
2019-02-26T22:45:18.160Z,72.35
2019-02-26T22:47:47.582Z,74.30
2019-02-26T22:50:17.061Z,68.28
2019-02-26T22:52:46.435Z,66.17
2019-02-26T22:55:17.231Z,70.17
2019-02-26T22:57:47.384Z,70.40
2019-02-26T23:00:53.005Z,74.83
2019-02-26T23:03:22.447Z,72.05
2019-02-26T23:05:52.031Z,68.25
2019-02-26T23:08:21.376Z,70.37
2019-02-26T23:10:51.398Z,63.83
2019-02-26T23:13:21.459Z,65.55
2019-02-26T23:15:50.842Z,70.57
2019-02-26T23:18:21.005Z,64.30
2019-02-26T23:20:50.630Z,76.42
2019-02-26T23:23:21.881Z,74.82
2019-02-26T23:25:51.240Z,69.80
2019-02-26T23:28:21.969Z,69.67
2019-02-26T23:30:53.226Z,70.80
2019-02-26T23:33:22.682Z,66.10
2019-02-26T23:35:54.853Z,74.70
2019-02-26T23:38:23.427Z,72.82
2019-02-26T23:40:52.872Z,65.55
2019-02-26T23:43:22.221Z,65.65
2019-02-26T23:45:56.822Z,71.17
2019-02-26T23:48:23.806Z,80.32
2019-02-26T23:50:53.176Z,70.80
2019-02-26T23:53:22.627Z,67.03
2019-02-26T23:55:52.042Z,66.30
2019-02-26T23:58:21.454Z,68.87
